createdAt,value
2023-04-30T00:02:27.980Z,100064.66
2023-04-30T00:04:58.717Z,100063.09
2023-04-30T00:07:29.380Z,100065.83
2023-04-30T00:10:00.151Z,100063.75
2023-04-30T00:12:30.930Z,100064.41
2023-04-30T00:15:01.722Z,100064.58
2023-04-30T00:17:33.137Z,100062.52
2023-04-30T00:20:04.130Z,100065.09
2023-04-30T00:22:37.341Z,100069.20
2023-04-30T00:25:09.558Z,100070.58
2023-04-30T00:27:41.111Z,100070.73
2023-04-30T00:30:13.472Z,100071.94
2023-04-30T00:32:45.892Z,100074.68
2023-04-30T00:35:17.058Z,100077.81
2023-04-30T00:37:47.806Z,100076.95
2023-04-30T00:40:18.924Z,100080.90
2023-04-30T00:42:49.872Z,100081.29
2023-04-30T00:45:22.221Z,100078.06
2023-04-30T00:47:53.178Z,100080.32
2023-04-30T00:50:24.864Z,100077.77
2023-04-30T00:52:55.658Z,100085.66
2023-04-30T00:55:27.662Z,100084.82
2023-04-30T00:57:59.089Z,100082.09
2023-04-30T01:00:30.619Z,100088.45
2023-04-30T01:03:01.646Z,100086.08
2023-04-30T01:05:32.914Z,100086.27
2023-04-30T01:08:03.730Z,100084.05
2023-04-30T01:10:43.405Z,100082.38
2023-04-30T01:13:18.964Z,100083.40
2023-04-30T01:15:56.353Z,100085.00
2023-04-30T01:18:34.751Z,100085.36
2023-04-30T01:21:07.507Z,100088.80
2023-04-30T01:23:55.962Z,100087.11
2023-04-30T01:26:46.724Z,100093.66
2023-04-30T01:29:20.735Z,100095.05
2023-04-30T01:31:51.876Z,100097.14
2023-04-30T01:34:22.680Z,100097.71
2023-04-30T01:37:05.137Z,100103.08
2023-04-30T01:39:49.776Z,100101.70
2023-04-30T01:42:24.190Z,100102.79
2023-04-30T01:45:16.926Z,100104.35
2023-04-30T01:47:54.053Z,100103.23
2023-04-30T01:50:35.067Z,100101.23
2023-04-30T01:53:12.860Z,100104.85
2023-04-30T01:56:26.938Z,100105.61
2023-04-30T01:59:04.130Z,100111.64
2023-04-30T02:01:36.538Z,100111.15
2023-04-30T02:04:21.559Z,100109.74
2023-04-30T02:07:03.488Z,100112.50
2023-04-30T02:09:35.742Z,100112.51
2023-04-30T02:12:10.184Z,100116.61
2023-04-30T02:14:41.086Z,100116.47
2023-04-30T02:17:35.265Z,100118.52
2023-04-30T02:20:14.085Z,100117.64
2023-04-30T02:22:45.729Z,100120.92
2023-04-30T02:25:16.673Z,100119.05
2023-04-30T02:27:47.400Z,100124.02
2023-04-30T02:30:19.913Z,100129.71
2023-04-30T02:32:51.368Z,100127.19
2023-04-30T02:35:22.615Z,100133.56
2023-04-30T02:37:53.970Z,100136.66
2023-04-30T02:40:24.750Z,100137.53
2023-04-30T02:42:56.935Z,100141.32
2023-04-30T02:45:27.953Z,100143.22
2023-04-30T02:47:59.510Z,100148.41
2023-04-30T02:50:30.348Z,100153.23
2023-04-30T02:53:01.151Z,100152.76
2023-04-30T02:55:32.928Z,100156.59
2023-04-30T02:58:03.785Z,100160.48
2023-04-30T03:00:34.575Z,100167.44
2023-04-30T03:03:05.455Z,100173.42
2023-04-30T03:05:37.605Z,100172.56
2023-04-30T03:08:08.402Z,100176.13
2023-04-30T03:10:39.089Z,100178.52
2023-04-30T03:13:09.955Z,100175.05
2023-04-30T03:15:40.935Z,100182.88
2023-04-30T03:18:12.761Z,100189.31
2023-04-30T03:20:43.726Z,100193.32
2023-04-30T03:23:15.106Z,100189.40
2023-04-30T03:25:45.929Z,100190.13
2023-04-30T03:28:16.806Z,100190.34
2023-04-30T03:30:47.538Z,100194.31
2023-04-30T03:33:18.414Z,100202.08
2023-04-30T03:35:50.624Z,100207.59
2023-04-30T03:38:21.816Z,100209.55
2023-04-30T03:40:52.630Z,100217.33
2023-04-30T03:43:23.370Z,100223.91
2023-04-30T03:45:54.159Z,100226.70
2023-04-30T03:48:27.163Z,100230.92
2023-04-30T03:50:57.980Z,100238.41
2023-04-30T03:53:28.777Z,100242.63
2023-04-30T03:56:00.228Z,100245.96
2023-04-30T03:58:31.212Z,100251.70
2023-04-30T04:01:02.026Z,100258.14
2023-04-30T04:03:35.331Z,100261.64
2023-04-30T04:06:06.499Z,100262.75
2023-04-30T04:08:37.590Z,100272.63
2023-04-30T04:11:08.774Z,100277.88
2023-04-30T04:13:40.108Z,100286.89
2023-04-30T04:16:11.396Z,100292.46
2023-04-30T04:18:42.483Z,100296.13
2023-04-30T04:21:13.199Z,100297.55
2023-04-30T04:23:44.069Z,100302.03
2023-04-30T04:26:15.075Z,100302.59
2023-04-30T04:28:45.881Z,100305.86
2023-04-30T04:31:16.860Z,100308.29
2023-04-30T04:33:47.670Z,100308.82
2023-04-30T04:36:18.516Z,100312.96
2023-04-30T04:38:52.809Z,100316.57
2023-04-30T04:41:25.502Z,100321.54
2023-04-30T04:43:56.847Z,100327.00
2023-04-30T04:46:29.898Z,100335.04
2023-04-30T04:49:01.197Z,100338.77
2023-04-30T04:51:32.293Z,100342.16
2023-04-30T04:54:03.661Z,100344.22
2023-04-30T04:56:34.677Z,100349.67
2023-04-30T04:59:05.384Z,100350.16
2023-04-30T05:01:36.574Z,100353.89
2023-04-30T05:04:09.540Z,100359.52
2023-04-30T05:06:40.934Z,100360.31
2023-04-30T05:09:11.956Z,100361.64
2023-04-30T05:11:43.943Z,100363.33
2023-04-30T05:14:14.605Z,100365.71
2023-04-30T05:16:45.849Z,100373.23
2023-04-30T05:19:16.597Z,100376.65
2023-04-30T05:21:47.303Z,100379.73
2023-04-30T05:24:18.051Z,100384.51
2023-04-30T05:26:48.823Z,100387.91
2023-04-30T05:29:19.486Z,100391.67
2023-04-30T05:31:50.318Z,100393.37
2023-04-30T05:34:21.356Z,100400.01
2023-04-30T05:36:52.419Z,100404.24
2023-04-30T05:39:23.091Z,100405.73
2023-04-30T05:41:53.833Z,100406.67
2023-04-30T05:44:24.485Z,100412.08
2023-04-30T05:46:55.143Z,100414.23
2023-04-30T05:49:25.976Z,100419.13
2023-04-30T05:51:56.696Z,100424.56
2023-04-30T05:54:27.414Z,100423.66
2023-04-30T05:56:58.247Z,100424.81
2023-04-30T05:59:29.052Z,100426.29
2023-04-30T06:01:59.933Z,100426.41
2023-04-30T06:04:31.171Z,100427.72
2023-04-30T06:07:03.761Z,100432.42
2023-04-30T06:09:34.580Z,100435.84
2023-04-30T06:12:05.801Z,100437.19
2023-04-30T06:14:43.581Z,100437.05
2023-04-30T06:17:14.296Z,100435.11
2023-04-30T06:19:47.344Z,100433.80
2023-04-30T06:22:20.072Z,100433.88
2023-04-30T06:24:50.764Z,100435.83
2023-04-30T06:27:21.478Z,100437.20
2023-04-30T06:29:52.363Z,100444.83
2023-04-30T06:32:23.362Z,100443.44
2023-04-30T06:34:54.160Z,100443.38
2023-04-30T06:37:24.914Z,100446.97
2023-04-30T06:39:55.776Z,100445.05
2023-04-30T06:42:26.792Z,100443.72
2023-04-30T06:44:57.535Z,100443.27
2023-04-30T06:47:28.482Z,100440.27
2023-04-30T06:50:01.804Z,100444.71
2023-04-30T06:52:33.248Z,100444.91
2023-04-30T06:55:03.928Z,100448.33
2023-04-30T06:57:34.755Z,100444.90
2023-04-30T07:00:06.532Z,100451.45
2023-04-30T07:02:37.630Z,100451.27
2023-04-30T07:05:13.253Z,100453.05
2023-04-30T07:07:46.668Z,100450.63
2023-04-30T07:10:17.462Z,100452.33
2023-04-30T07:12:51.142Z,100457.40
2023-04-30T07:15:22.013Z,100457.04
2023-04-30T07:17:52.885Z,100457.22
2023-04-30T07:20:23.731Z,100458.30
2023-04-30T07:22:55.710Z,100467.77
2023-04-30T07:25:26.476Z,100472.48
2023-04-30T07:27:57.754Z,100476.65
2023-04-30T07:30:28.625Z,100473.86
2023-04-30T07:32:59.364Z,100476.88
2023-04-30T07:35:40.202Z,100476.53
2023-04-30T07:38:11.135Z,100472.05
2023-04-30T07:40:42.024Z,100479.81
2023-04-30T07:43:13.081Z,100482.70
2023-04-30T07:45:44.659Z,100479.81
2023-04-30T07:48:15.809Z,100484.70
2023-04-30T07:50:49.550Z,100489.50
2023-04-30T07:53:21.483Z,100485.78
2023-04-30T07:55:53.553Z,100491.23
2023-04-30T07:58:24.242Z,100493.23
2023-04-30T08:00:55.131Z,100494.48
2023-04-30T08:03:25.980Z,100491.77
2023-04-30T08:05:56.934Z,100499.15
2023-04-30T08:08:28.113Z,100497.84
2023-04-30T08:11:01.869Z,100502.98
2023-04-30T08:13:32.606Z,100505.29
2023-04-30T08:16:03.370Z,100504.49
2023-04-30T08:18:34.148Z,100505.09
2023-04-30T08:21:04.976Z,100506.15
2023-04-30T08:23:36.066Z,100511.04
2023-04-30T08:26:06.941Z,100520.38
2023-04-30T08:28:37.738Z,100516.60
2023-04-30T08:31:09.415Z,100515.70
2023-04-30T08:33:41.243Z,100509.67
2023-04-30T08:36:12.156Z,100519.08
2023-04-30T08:38:43.494Z,100517.88
2023-04-30T08:41:17.819Z,100523.20
2023-04-30T08:43:58.154Z,100530.23
2023-04-30T08:46:31.140Z,100530.09
2023-04-30T08:49:02.488Z,100532.66
2023-04-30T08:51:42.601Z,100531.61
2023-04-30T08:54:15.547Z,100534.16
2023-04-30T08:56:47.695Z,100537.12
2023-04-30T08:59:18.439Z,100539.35
2023-04-30T09:01:53.070Z,100541.16
2023-04-30T09:04:31.123Z,100545.36
2023-04-30T09:07:05.579Z,100545.55
2023-04-30T09:09:44.032Z,100547.45
2023-04-30T09:12:20.217Z,100547.63
2023-04-30T09:15:05.208Z,100552.54
2023-04-30T09:17:38.386Z,100559.20
2023-04-30T09:20:14.455Z,100564.02
2023-04-30T09:22:45.380Z,100564.44
2023-04-30T09:25:17.000Z,100563.88
2023-04-30T09:28:08.416Z,100564.57
2023-04-30T09:30:45.271Z,100570.25
2023-04-30T09:33:40.191Z,100563.86
2023-04-30T09:41:07.078Z,100568.65
2023-04-30T09:43:48.100Z,100570.22
2023-04-30T09:46:33.715Z,100571.63
2023-04-30T09:49:13.611Z,100573.63
2023-04-30T09:52:01.500Z,100575.56
2023-04-30T09:54:34.695Z,100571.85
2023-04-30T09:57:10.732Z,100571.66
2023-04-30T09:59:47.279Z,100567.41
2023-04-30T10:02:20.335Z,100569.63
2023-04-30T10:04:57.401Z,100573.68
2023-04-30T10:07:40.382Z,100571.95
2023-04-30T10:13:16.089Z,100560.12
2023-04-30T10:16:23.128Z,100556.37
2023-04-30T10:18:55.998Z,100562.10
2023-04-30T10:21:28.299Z,100565.92
2023-04-30T10:23:59.540Z,100565.42
2023-04-30T10:26:34.554Z,100565.65
2023-04-30T10:29:07.084Z,100559.67
2023-04-30T10:31:39.252Z,100560.77
2023-04-30T10:34:16.641Z,100565.77
2023-04-30T10:36:53.405Z,100558.91
2023-04-30T10:39:27.728Z,100560.11
2023-04-30T10:42:14.028Z,100558.20
2023-04-30T10:44:45.273Z,100561.88
2023-04-30T10:47:19.263Z,100563.27
2023-04-30T10:49:54.349Z,100560.50
2023-04-30T10:52:31.730Z,100560.26
2023-04-30T10:55:08.097Z,100563.46
2023-04-30T10:57:48.360Z,100561.77
2023-04-30T11:00:27.080Z,100567.61
2023-04-30T11:03:15.171Z,100567.25
2023-04-30T11:05:48.458Z,100566.77
2023-04-30T11:08:21.528Z,100564.17
2023-04-30T11:11:01.833Z,100570.56
2023-04-30T11:13:46.428Z,100572.84
2023-04-30T11:16:42.868Z,100566.75
2023-04-30T11:19:17.303Z,100570.39
2023-04-30T11:27:43.817Z,100577.38
2023-04-30T11:33:41.944Z,100581.88
2023-04-30T11:36:15.629Z,100584.64
2023-04-30T11:38:48.050Z,100579.81
2023-04-30T11:41:30.404Z,100581.02
2023-04-30T11:44:04.076Z,100582.86
2023-04-30T11:46:39.757Z,100584.77
2023-04-30T11:49:13.666Z,100594.96
2023-04-30T11:51:55.860Z,100594.20
2023-04-30T11:54:26.651Z,100598.39
2023-04-30T11:57:04.359Z,100598.23
2023-04-30T11:59:45.622Z,100596.15
2023-04-30T12:02:22.165Z,100593.22
2023-04-30T12:04:54.265Z,100588.02
2023-04-30T12:07:25.185Z,100595.22
2023-04-30T12:09:57.245Z,100599.16
2023-04-30T12:12:37.946Z,100611.75
2023-04-30T12:15:23.206Z,100611.49
2023-04-30T12:18:00.316Z,100605.80
2023-04-30T12:20:37.359Z,100601.05
2023-04-30T12:23:08.507Z,100606.81
2023-04-30T12:25:45.906Z,100601.42
2023-04-30T12:28:27.738Z,100605.82
2023-04-30T12:31:12.845Z,100603.48
2023-04-30T12:33:44.282Z,100605.26
2023-04-30T12:36:15.944Z,100602.92
2023-04-30T12:38:51.704Z,100604.21
2023-04-30T12:41:37.920Z,100604.45
2023-04-30T12:44:20.147Z,100602.27
2023-04-30T12:47:15.819Z,100602.44
2023-04-30T12:49:53.908Z,100602.63
2023-04-30T12:52:29.308Z,100597.17
2023-04-30T12:55:27.073Z,100592.80
2023-04-30T12:58:24.451Z,100597.89
2023-04-30T13:00:58.019Z,100595.80
2023-04-30T13:03:31.639Z,100594.69
2023-04-30T13:06:04.785Z,100592.29
2023-04-30T13:08:42.616Z,100590.64
2023-04-30T13:11:19.639Z,100583.87
2023-04-30T13:13:50.728Z,100580.08
2023-04-30T13:16:21.583Z,100581.88
2023-04-30T13:18:52.410Z,100587.80
2023-04-30T13:21:23.189Z,100591.41
2023-04-30T13:23:55.729Z,100587.83
2023-04-30T13:26:28.552Z,100580.08
2023-04-30T13:29:00.310Z,100582.56
2023-04-30T13:31:31.173Z,100592.44
2023-04-30T13:34:02.064Z,100581.52
2023-04-30T13:36:33.397Z,100588.60
2023-04-30T13:39:04.896Z,100592.84
2023-04-30T13:41:35.634Z,100594.11
2023-04-30T13:44:06.468Z,100591.54
2023-04-30T13:46:38.534Z,100595.90
2023-04-30T13:49:10.718Z,100589.55
2023-04-30T13:51:41.555Z,100587.54
2023-04-30T13:54:13.164Z,100587.09
2023-04-30T13:56:45.848Z,100587.36
2023-04-30T13:59:20.653Z,100591.10
2023-04-30T14:01:51.403Z,100584.02
2023-04-30T14:04:22.264Z,100585.80
2023-04-30T14:06:56.626Z,100588.47
2023-04-30T14:09:27.474Z,100589.70
2023-04-30T14:11:59.139Z,100590.23
2023-04-30T14:14:31.705Z,100589.42
2023-04-30T14:17:02.620Z,100591.20
2023-04-30T14:19:33.518Z,100584.90
2023-04-30T14:22:04.482Z,100585.66
2023-04-30T14:24:35.365Z,100585.59
2023-04-30T14:27:08.302Z,100590.52
2023-04-30T14:29:39.112Z,100587.64
2023-04-30T14:32:10.311Z,100595.09
2023-04-30T14:34:41.101Z,100591.45
2023-04-30T14:37:15.630Z,100593.02
2023-04-30T14:39:46.431Z,100596.12
2023-04-30T14:42:22.197Z,100596.48
2023-04-30T14:44:53.752Z,100596.54
2023-04-30T14:47:27.985Z,100593.65
2023-04-30T14:50:02.905Z,100596.52
2023-04-30T14:52:34.281Z,100595.70
2023-04-30T14:55:08.287Z,100595.50
2023-04-30T14:57:39.491Z,100598.41
2023-04-30T15:00:12.282Z,100595.79
2023-04-30T15:02:43.231Z,100596.50
2023-04-30T15:05:51.786Z,100599.10
2023-04-30T15:08:27.293Z,100598.70
2023-04-30T15:11:18.345Z,100600.75
2023-04-30T15:13:51.703Z,100600.75
2023-04-30T15:16:22.800Z,100603.68
2023-04-30T15:18:54.295Z,100602.65
2023-04-30T15:21:25.182Z,100606.76
2023-04-30T15:23:59.102Z,100605.98
2023-04-30T15:26:30.779Z,100603.80
2023-04-30T15:29:01.983Z,100605.44
2023-04-30T15:31:33.151Z,100605.50
2023-04-30T15:34:03.969Z,100606.64
2023-04-30T15:36:35.115Z,100606.80
2023-04-30T15:39:06.271Z,100602.63
2023-04-30T15:41:39.907Z,100602.73
2023-04-30T15:44:10.763Z,100605.73
2023-04-30T15:46:42.996Z,100605.14
2023-04-30T15:49:14.449Z,100613.00
2023-04-30T15:51:48.422Z,100615.30
2023-04-30T15:54:23.498Z,100617.64
2023-04-30T15:56:55.051Z,100616.87
2023-04-30T15:59:27.659Z,100615.95
2023-04-30T16:02:05.373Z,100618.27
2023-04-30T16:04:36.470Z,100615.61
2023-04-30T16:07:07.521Z,100617.36
2023-04-30T16:09:39.097Z,100616.54
2023-04-30T16:12:09.955Z,100618.66
2023-04-30T16:14:43.564Z,100615.96
2023-04-30T16:17:14.402Z,100615.88
2023-04-30T16:19:45.203Z,100614.23
2023-04-30T16:22:17.361Z,100614.65
2023-04-30T16:24:48.255Z,100614.20
2023-04-30T16:27:19.039Z,100615.69
2023-04-30T16:29:50.183Z,100612.02
2023-04-30T16:32:20.980Z,100615.10
2023-04-30T16:34:53.511Z,100616.44
2023-04-30T16:37:24.524Z,100621.38
2023-04-30T16:40:03.575Z,100624.95
2023-04-30T16:42:34.858Z,100624.56
2023-04-30T16:45:09.691Z,100632.06
2023-04-30T16:47:40.809Z,100631.83
2023-04-30T16:50:18.484Z,100631.26
2023-04-30T16:52:49.221Z,100635.85
2023-04-30T16:55:20.443Z,100636.62
2023-04-30T16:57:54.528Z,100639.30
2023-04-30T17:00:25.395Z,100641.59
2023-04-30T17:02:56.353Z,100643.73
2023-04-30T17:05:27.275Z,100638.84
2023-04-30T17:07:58.369Z,100639.96
2023-04-30T17:10:31.040Z,100642.94
2023-04-30T17:13:14.942Z,100647.60
2023-04-30T17:15:48.803Z,100650.38
2023-04-30T17:18:19.928Z,100648.04
2023-04-30T17:20:52.436Z,100651.39
2023-04-30T17:23:23.376Z,100652.50
2023-04-30T17:25:54.665Z,100655.52
2023-04-30T17:28:26.116Z,100659.95
2023-04-30T17:30:58.141Z,100663.51
2023-04-30T17:33:29.716Z,100665.16
2023-04-30T17:36:00.572Z,100667.85
2023-04-30T17:38:31.458Z,100669.15
2023-04-30T17:41:02.368Z,100671.36
2023-04-30T17:43:35.383Z,100673.88
2023-04-30T17:46:06.262Z,100675.03
2023-04-30T17:48:37.209Z,100678.94
2023-04-30T17:51:08.078Z,100679.55
2023-04-30T17:53:39.364Z,100683.42
2023-04-30T17:56:10.594Z,100683.33
2023-04-30T17:58:41.539Z,100685.48
2023-04-30T18:01:13.459Z,100690.89
2023-04-30T18:03:44.486Z,100695.41
2023-04-30T18:06:16.114Z,100694.32
2023-04-30T18:08:49.483Z,100694.91
2023-04-30T18:11:20.197Z,100693.29
2023-04-30T18:13:51.440Z,100701.24
2023-04-30T18:16:22.767Z,100703.20
2023-04-30T18:18:53.618Z,100707.37
2023-04-30T18:21:25.596Z,100706.57
2023-04-30T18:23:56.698Z,100710.92
2023-04-30T18:26:28.200Z,100712.38
2023-04-30T18:28:59.128Z,100715.02
2023-04-30T18:31:30.797Z,100712.18
2023-04-30T18:34:01.946Z,100721.50
2023-04-30T18:36:32.843Z,100721.23
2023-04-30T18:39:27.775Z,100719.77
2023-04-30T18:41:58.607Z,100722.70
2023-04-30T18:44:33.389Z,100721.05
2023-04-30T18:47:09.345Z,100724.34
2023-04-30T18:49:41.453Z,100723.52
2023-04-30T18:52:12.370Z,100724.92
2023-04-30T18:54:43.247Z,100725.48
2023-04-30T18:57:16.516Z,100725.52
2023-04-30T18:59:48.626Z,100727.45
2023-04-30T19:02:19.745Z,100729.89
2023-04-30T19:04:50.670Z,100730.08
2023-04-30T19:07:21.564Z,100734.22
2023-04-30T19:09:53.777Z,100736.48
2023-04-30T19:12:29.076Z,100742.34
2023-04-30T19:15:00.901Z,100743.58
2023-04-30T19:17:31.786Z,100745.14
2023-04-30T19:20:02.876Z,100748.06
2023-04-30T19:22:33.734Z,100751.52
2023-04-30T19:25:04.838Z,100754.45
2023-04-30T19:27:35.638Z,100754.14
2023-04-30T19:30:12.146Z,100756.88
2023-04-30T19:32:43.177Z,100758.96
2023-04-30T19:35:14.387Z,100754.52
2023-04-30T19:37:45.681Z,100754.54
2023-04-30T19:40:18.483Z,100755.09
2023-04-30T19:42:49.311Z,100754.93
2023-04-30T19:45:20.479Z,100763.17
2023-04-30T19:47:51.321Z,100763.19
2023-04-30T19:50:22.262Z,100763.23
2023-04-30T19:52:54.308Z,100767.18
2023-04-30T19:55:25.093Z,100765.16
2023-04-30T19:57:55.994Z,100768.80
2023-04-30T20:00:26.842Z,100765.40
2023-04-30T20:02:57.767Z,100765.25
2023-04-30T20:05:28.713Z,100767.49
2023-04-30T20:08:00.169Z,100768.04
2023-04-30T20:10:30.935Z,100767.05
2023-04-30T20:13:01.814Z,100766.05
2023-04-30T20:15:56.689Z,100771.21
2023-04-30T20:18:33.535Z,100771.23
2023-04-30T20:21:07.422Z,100771.61
2023-04-30T20:23:40.784Z,100774.70
2023-04-30T20:26:11.933Z,100776.43
2023-04-30T20:28:44.203Z,100775.59
2023-04-30T20:31:15.353Z,100780.05
2023-04-30T20:33:46.864Z,100780.23
2023-04-30T20:36:18.356Z,100780.93
2023-04-30T20:38:49.245Z,100783.17
2023-04-30T20:41:22.663Z,100783.52
2023-04-30T20:43:54.168Z,100784.55
2023-04-30T20:46:25.397Z,100785.23
2023-04-30T20:49:03.987Z,100782.67
2023-04-30T20:51:34.819Z,100790.03
2023-04-30T20:54:05.865Z,100784.56
2023-04-30T20:56:36.759Z,100785.73
2023-04-30T20:59:09.897Z,100784.73
2023-04-30T21:01:42.025Z,100781.99
2023-04-30T21:04:19.268Z,100784.38
2023-04-30T21:06:50.144Z,100785.07
2023-04-30T21:09:24.183Z,100786.95
2023-04-30T21:11:55.213Z,100787.45
2023-04-30T21:14:26.024Z,100793.61
2023-04-30T21:16:57.079Z,100795.83
2023-04-30T21:19:28.076Z,100800.95
2023-04-30T21:22:00.927Z,100804.88
2023-04-30T21:24:34.303Z,100808.11
2023-04-30T21:27:05.510Z,100816.48
2023-04-30T21:29:36.855Z,100821.43
2023-04-30T21:32:08.301Z,100829.61
2023-04-30T21:34:39.345Z,100824.66
2023-04-30T21:37:17.257Z,100828.08
2023-04-30T21:39:48.405Z,100830.12
2023-04-30T21:42:19.235Z,100838.13
2023-04-30T21:44:50.565Z,100842.05
2023-04-30T21:47:21.417Z,100849.90
2023-04-30T21:49:52.168Z,100849.89
2023-04-30T21:52:22.959Z,100852.96
2023-04-30T21:54:53.823Z,100851.77
2023-04-30T21:57:24.664Z,100854.83
2023-04-30T21:59:55.626Z,100856.02
2023-04-30T22:02:26.703Z,100861.63
2023-04-30T22:04:57.743Z,100863.14
2023-04-30T22:07:28.542Z,100865.88
2023-04-30T22:09:59.597Z,100872.35
2023-04-30T22:12:30.363Z,100875.23
2023-04-30T22:15:01.836Z,100879.30
2023-04-30T22:17:32.755Z,100883.73
2023-04-30T22:20:03.898Z,100884.06
2023-04-30T22:22:34.679Z,100893.44
2023-04-30T22:25:05.913Z,100895.64
2023-04-30T22:27:36.809Z,100897.84
2023-04-30T22:30:09.400Z,100901.25
2023-04-30T22:32:40.222Z,100903.63
2023-04-30T22:35:12.636Z,100901.90
2023-04-30T22:37:43.676Z,100905.45
2023-04-30T22:40:15.613Z,100910.03
2023-04-30T22:42:46.542Z,100909.84
2023-04-30T22:45:17.819Z,100912.55
2023-04-30T22:47:48.902Z,100912.69
2023-04-30T22:50:19.918Z,100916.58
2023-04-30T22:52:50.995Z,100923.35
2023-04-30T22:55:21.859Z,100918.20
2023-04-30T22:57:52.655Z,100919.67
2023-04-30T23:00:24.159Z,100916.58
2023-04-30T23:02:55.018Z,100917.73
2023-04-30T23:05:26.380Z,100917.17
2023-04-30T23:07:57.197Z,100920.88
2023-04-30T23:10:28.109Z,100926.62
2023-04-30T23:12:59.098Z,100929.13
2023-04-30T23:15:29.897Z,100927.21
2023-04-30T23:18:01.274Z,100926.85
2023-04-30T23:20:32.223Z,100930.90
2023-04-30T23:23:02.949Z,100928.65
2023-04-30T23:25:33.836Z,100927.60
2023-04-30T23:28:05.152Z,100923.64
2023-04-30T23:30:38.395Z,100926.84
2023-04-30T23:33:09.199Z,100926.30
2023-04-30T23:35:42.431Z,100925.39
2023-04-30T23:38:13.252Z,100927.91
2023-04-30T23:40:44.842Z,100928.38
2023-04-30T23:43:15.532Z,100930.56
2023-04-30T23:45:46.332Z,100933.06
2023-04-30T23:48:17.243Z,100934.72
2023-04-30T23:50:48.103Z,100937.58
2023-04-30T23:53:18.932Z,100942.81
2023-04-30T23:55:49.701Z,100937.65
2023-04-30T23:58:20.440Z,100940.02
